Time;durP1;ratioP1;P1;durP2;ratioP2;P2;SDS_P1;SDS_P2;PMS_P1;PMS_P2;Temp;Humidity;BMP_temperature;BMP_pressure;BME280_temperature;BME280_humidity;BME280_pressure;Samples;Min_cycle;Max_cycle;Signal;HPM_P1;HPM_P2
2021/10/24 00:00:34;;;;;;;10.10;4.95;;;;;;;;;;2090231;28;20136;-43
2021/10/24 00:01:35;;;;;;;13.13;6.18;;;;;;;;;;2087717;28;20487;-43
2021/10/24 00:02:37;;;;;;;8.45;5.43;;;;;;;;;;2090014;28;20156;-43
2021/10/24 00:03:38;;;;;;;9.52;5.03;;;;;;;;;;2088750;28;20048;-42
2021/10/24 00:04:39;;;;;;;11.07;5.93;;;;;;;;;;2087616;28;20488;-43
2021/10/24 00:05:40;;;;;;;11.10;6.00;;;;;;;;;;2090223;28;20072;-43
2021/10/24 00:06:41;;;;;;;17.13;6.18;;;;;;;;;;2090105;28;20043;-43
2021/10/24 00:07:42;;;;;;;15.15;6.00;;;;;;;;;;2089057;28;20041;-43
2021/10/24 00:08:43;;;;;;;10.77;5.57;;;;;;;;;;2090036;28;20431;-43
2021/10/24 00:09:44;;;;;;;11.23;5.67;;;;;;;;;;2090194;28;20053;-42
2021/10/24 00:10:45;;;;;;;10.73;5.53;;;;;;;;;;2088931;28;20049;-43
2021/10/24 00:11:46;;;;;;;12.10;6.10;;;;;;;;;;2090160;28;20079;-42
2021/10/24 00:12:47;;;;;;;11.15;5.53;;;;;;;;;;2089618;28;20068;-42
2021/10/24 00:13:48;;;;;;;15.85;6.32;;;;;;;;;;2088243;28;20401;-43
2021/10/24 00:14:49;;;;;;;10.70;5.43;;;;;;;;;;2090174;28;20048;-43
2021/10/24 00:15:50;;;;;;;11.43;5.45;;;;;;;;;;2090668;28;20052;-43
2021/10/24 00:16:51;;;;;;;13.50;6.25;;;;;;;;;;2088268;28;20056;-43
2021/10/24 00:17:53;;;;;;;10.68;6.05;;;;;;;;;;2089986;28;20041;-43
2021/10/24 00:18:54;;;;;;;11.50;5.53;;;;;;;;;;2089237;28;20049;-43
2021/10/24 00:19:55;;;;;;;10.75;5.43;;;;;;;;;;2088576;28;20071;-43
2021/10/24 00:20:57;;;;;;;16.05;6.38;;;;;;;;;;2090236;28;20040;-43
2021/10/24 00:21:58;;;;;;;13.15;6.13;;;;;;;;;;2089112;28;20341;-43
2021/10/24 00:22:59;;;;;;;10.87;6.10;;;;;;;;;;2088703;28;20056;-43
2021/10/24 00:24:00;;;;;;;12.23;5.65;;;;;;;;;;2090167;28;20274;-43
2021/10/24 00:25:01;;;;;;;17.42;6.50;;;;;;;;;;2088494;28;20140;-43
2021/10/24 00:26:02;;;;;;;12.97;6.03;;;;;;;;;;2089483;28;20501;-43
2021/10/24 00:27:03;;;;;;;9.70;6.00;;;;;;;;;;2089935;28;20486;-43
2021/10/24 00:28:05;;;;;;;18.83;6.70;;;;;;;;;;2089078;28;20049;-43
2021/10/24 00:29:21;;;;;;;11.50;6.47;;;;;;;;;;2089955;28;20556;-43
2021/10/24 00:30:21;;;;;;;11.23;6.18;;;;;;;;;;2089446;28;20056;-41
2021/10/24 00:31:23;;;;;;;10.13;6.13;;;;;;;;;;2088177;28;20044;-43
2021/10/24 00:32:24;;;;;;;9.30;5.45;;;;;;;;;;2089999;28;20282;-44
2021/10/24 00:33:26;;;;;;;12.17;6.37;;;;;;;;;;2089242;28;20410;-43
2021/10/24 00:34:43;;;;;;;11.93;5.95;;;;;;;;;;2088556;28;20743;-43
2021/10/24 00:35:44;;;;;;;8.95;5.68;;;;;;;;;;2089977;28;20041;-43
2021/10/24 00:36:45;;;;;;;10.52;6.13;;;;;;;;;;2087506;28;20179;-43
2021/10/24 00:37:46;;;;;;;8.60;5.47;;;;;;;;;;2089691;28;20045;-43
2021/10/24 00:38:47;;;;;;;10.52;5.60;;;;;;;;;;2090045;28;20055;-43
2021/10/24 00:39:49;;;;;;;8.15;5.60;;;;;;;;;;2087554;28;20505;-43
2021/10/24 00:41:10;;;;;;;13.05;6.32;;;;;;;;;;2089955;28;20052;-43
2021/10/24 00:42:11;;;;;;;10.60;6.05;;;;;;;;;;2090496;28;20053;-43
2021/10/24 00:43:12;;;;;;;9.80;5.90;;;;;;;;;;2088267;28;20044;-43
2021/10/24 00:44:20;;;;;;;10.23;6.03;;;;;;;;;;2089545;28;20478;-42
2021/10/24 00:45:23;;;;;;;12.20;5.40;;;;;;;;;;2090218;28;20285;-42
2021/10/24 00:46:24;;;;;;;11.88;6.13;;;;;;;;;;2088594;28;20072;-43
2021/10/24 00:47:32;;;;;;;11.55;5.97;;;;;;;;;;2089670;28;20483;-43
2021/10/24 00:48:34;;;;;;;10.68;5.70;;;;;;;;;;2090097;28;20045;-43
2021/10/24 00:49:35;;;;;;;9.52;5.45;;;;;;;;;;2087562;28;20045;-43
2021/10/24 00:50:37;;;;;;;10.82;6.63;;;;;;;;;;2089836;28;20525;-43
2021/10/24 00:51:38;;;;;;;9.25;5.55;;;;;;;;;;2087656;28;20494;-43
2021/10/24 00:52:40;;;;;;;10.13;5.32;;;;;;;;;;2089681;28;20049;-43
2021/10/24 00:53:42;;;;;;;9.93;5.97;;;;;;;;;;2089800;28;20465;-43
2021/10/24 00:54:43;;;;;;;9.15;6.00;;;;;;;;;;2089062;28;20482;-43
2021/10/24 00:55:45;;;;;;;10.68;6.30;;;;;;;;;;2089660;28;20132;-43
2021/10/24 00:56:48;;;;;;;9.60;5.93;;;;;;;;;;2089843;28;20049;-43
2021/10/24 00:57:50;;;;;;;10.23;6.00;;;;;;;;;;2087321;28;20418;-43
2021/10/24 00:58:53;;;;;;;9.73;5.93;;;;;;;;;;2089817;28;20148;-43
2021/10/24 00:59:54;;;;;;;9.80;6.05;;;;;;;;;;2089347;28;20190;-43
2021/10/24 01:00:55;;;;;;;9.48;5.88;;;;;;;;;;2087933;28;20041;-43
2021/10/24 01:01:57;;;;;;;11.35;5.78;;;;;;;;;;2089712;28;20518;-43
2021/10/24 01:02:59;;;;;;;11.38;6.10;;;;;;;;;;2088120;28;20044;-42
2021/10/24 01:04:03;;;;;;;10.35;5.53;;;;;;;;;;2087167;28;20048;-43
2021/10/24 01:05:05;;;;;;;10.95;6.00;;;;;;;;;;2089757;28;20135;-43
2021/10/24 01:06:06;;;;;;;11.32;5.88;;;;;;;;;;2088737;28;20463;-43
2021/10/24 01:07:07;;;;;;;9.80;5.85;;;;;;;;;;2088215;28;20102;-43
2021/10/24 01:08:09;;;;;;;12.67;6.27;;;;;;;;;;2089811;28;20056;-43
2021/10/24 01:09:12;;;;;;;9.82;5.75;;;;;;;;;;2088862;28;20044;-43
2021/10/24 01:10:15;;;;;;;11.52;5.72;;;;;;;;;;2088579;28;20136;-43
2021/10/24 01:11:17;;;;;;;13.15;6.05;;;;;;;;;;2089649;28;20139;-43
2021/10/24 01:12:17;;;;;;;11.82;6.22;;;;;;;;;;2087516;28;20236;-43
2021/10/24 01:13:19;;;;;;;13.83;7.17;;;;;;;;;;2089495;28;20147;-43
2021/10/24 01:14:20;;;;;;;10.63;6.10;;;;;;;;;;2089651;28;20128;-43
2021/10/24 01:15:23;;;;;;;12.30;5.95;;;;;;;;;;2087527;28;20079;-43
2021/10/24 01:16:25;;;;;;;11.52;6.50;;;;;;;;;;2088620;28;20136;-43
2021/10/24 01:17:26;;;;;;;14.00;6.68;;;;;;;;;;2089650;28;20135;-43
2021/10/24 01:18:27;;;;;;;14.95;7.85;;;;;;;;;;2087304;28;20471;-43
2021/10/24 01:19:29;;;;;;;13.15;6.57;;;;;;;;;;2089738;28;20056;-43
2021/10/24 01:20:30;;;;;;;7.68;5.60;;;;;;;;;;2089605;28;20136;-43
2021/10/24 01:21:32;;;;;;;13.60;6.47;;;;;;;;;;2088614;28;20637;-43
2021/10/24 01:22:34;;;;;;;10.90;6.22;;;;;;;;;;2089547;28;20053;-43
2021/10/24 01:23:35;;;;;;;10.77;6.30;;;;;;;;;;2089588;28;20498;-43
2021/10/24 01:24:36;;;;;;;10.15;5.80;;;;;;;;;;2086505;28;20486;-43
2021/10/24 01:25:37;;;;;;;14.32;6.70;;;;;;;;;;2089692;28;20045;-43
2021/10/24 01:26:39;;;;;;;11.95;6.43;;;;;;;;;;2089247;28;20132;-43
2021/10/24 01:27:40;;;;;;;8.80;5.43;;;;;;;;;;2087556;28;20041;-43
2021/10/24 01:28:41;;;;;;;13.93;5.80;;;;;;;;;;2089651;28;20488;-43
2021/10/24 01:29:42;;;;;;;13.07;6.53;;;;;;;;;;2089135;28;20048;-46
2021/10/24 01:30:43;;;;;;;10.27;6.35;;;;;;;;;;2087770;28;20534;-50
2021/10/24 01:31:44;;;;;;;9.95;5.68;;;;;;;;;;2089557;28;20056;-46
2021/10/24 01:32:46;;;;;;;14.40;6.47;;;;;;;;;;2090402;28;20095;-47
2021/10/24 01:33:47;;;;;;;12.40;6.32;;;;;;;;;;2087908;28;20140;-47
2021/10/24 01:34:48;;;;;;;12.55;6.80;;;;;;;;;;2089685;28;20120;-48
2021/10/24 01:35:52;;;;;;;10.45;6.38;;;;;;;;;;2088810;28;20080;-46
2021/10/24 01:36:54;;;;;;;11.27;6.68;;;;;;;;;;2086926;28;20045;-46
2021/10/24 01:37:56;;;;;;;8.55;5.53;;;;;;;;;;2089643;28;20048;-46
2021/10/24 01:38:57;;;;;;;8.75;5.35;;;;;;;;;;2087832;28;20127;-47
2021/10/24 01:39:58;;;;;;;9.70;6.17;;;;;;;;;;2089140;28;20052;-48
2021/10/24 01:40:59;;;;;;;9.73;5.88;;;;;;;;;;2089168;28;20457;-47
2021/10/24 01:42:00;;;;;;;13.77;6.18;;;;;;;;;;2089840;28;20132;-47
2021/10/24 01:43:02;;;;;;;12.47;6.33;;;;;;;;;;2088298;28;20056;-47
2021/10/24 01:44:03;;;;;;;12.23;6.60;;;;;;;;;;2089647;28;20428;-46
2021/10/24 01:45:07;;;;;;;11.18;5.90;;;;;;;;;;2089470;28;20120;-47
2021/10/24 01:46:08;;;;;;;9.88;6.47;;;;;;;;;;2089092;28;20128;-46
2021/10/24 01:47:10;;;;;;;11.32;6.40;;;;;;;;;;2089484;28;20049;-46
2021/10/24 01:48:11;;;;;;;11.15;6.57;;;;;;;;;;2086895;28;20144;-48
2021/10/24 01:49:12;;;;;;;12.63;5.80;;;;;;;;;;2089535;28;20405;-48
2021/10/24 01:50:13;;;;;;;11.80;6.40;;;;;;;;;;2089454;28;20053;-46
2021/10/24 01:51:14;;;;;;;13.40;7.10;;;;;;;;;;2087153;28;20045;-47
2021/10/24 01:52:16;;;;;;;10.63;6.55;;;;;;;;;;2089389;28;20059;-46
2021/10/24 01:53:18;;;;;;;13.57;6.80;;;;;;;;;;2089059;28;20123;-46
2021/10/24 01:54:19;;;;;;;9.18;5.72;;;;;;;;;;2087632;28;20134;-47
2021/10/24 01:55:21;;;;;;;10.55;6.30;;;;;;;;;;2089411;28;20112;-47
2021/10/24 01:56:22;;;;;;;9.70;5.82;;;;;;;;;;2089071;28;20052;-50
2021/10/24 01:57:23;;;;;;;11.90;6.63;;;;;;;;;;2086657;28;20049;-47
2021/10/24 01:58:25;;;;;;;12.33;6.40;;;;;;;;;;2089436;28;20049;-46
2021/10/24 01:59:26;;;;;;;10.07;5.93;;;;;;;;;;2089011;28;20532;-47
2021/10/24 02:00:27;;;;;;;8.50;5.38;;;;;;;;;;2087821;28;20403;-47
2021/10/24 02:01:28;;;;;;;11.90;6.28;;;;;;;;;;2089248;28;20591;-47
2021/10/24 02:02:29;;;;;;;9.10;5.43;;;;;;;;;;2088489;28;20053;-47
2021/10/24 02:03:30;;;;;;;12.50;6.45;;;;;;;;;;2086517;28;20098;-47
2021/10/24 02:04:32;;;;;;;10.77;6.43;;;;;;;;;;2089475;28;20056;-48
2021/10/24 02:05:33;;;;;;;10.85;5.68;;;;;;;;;;2089733;28;20406;-46
2021/10/24 02:06:34;;;;;;;10.40;5.82;;;;;;;;;;2087102;28;20083;-45
2021/10/24 02:07:36;;;;;;;10.82;6.07;;;;;;;;;;2089362;28;20132;-47
2021/10/24 02:08:37;;;;;;;15.48;6.50;;;;;;;;;;2087801;28;20055;-47
2021/10/24 02:09:38;;;;;;;10.17;6.57;;;;;;;;;;2088947;28;20044;-47
2021/10/24 02:10:39;;;;;;;12.25;5.72;;;;;;;;;;2089293;28;20763;-48
2021/10/24 02:11:40;;;;;;;12.80;6.15;;;;;;;;;;2089760;28;20052;-48
2021/10/24 02:12:42;;;;;;;11.55;6.60;;;;;;;;;;2087974;28;20055;-47
2021/10/24 02:13:43;;;;;;;12.88;5.72;;;;;;;;;;2089346;28;20490;-47
2021/10/24 02:14:44;;;;;;;20.77;6.97;;;;;;;;;;2086942;28;20051;-47
2021/10/24 02:15:45;;;;;;;15.90;6.65;;;;;;;;;;2089299;28;20049;-46
2021/10/24 02:16:46;;;;;;;10.43;6.00;;;;;;;;;;2089259;28;20080;-47
2021/10/24 02:17:47;;;;;;;13.52;6.20;;;;;;;;;;2088768;28;20156;-47
2021/10/24 02:18:48;;;;;;;12.37;6.27;;;;;;;;;;2089088;28;20045;-46
2021/10/24 02:19:49;;;;;;;10.80;6.05;;;;;;;;;;2089460;28;20036;-46
2021/10/24 02:20:50;;;;;;;11.90;6.20;;;;;;;;;;2088390;28;20049;-48
2021/10/24 02:21:51;;;;;;;9.02;5.93;;;;;;;;;;2089175;28;20124;-47
2021/10/24 02:22:52;;;;;;;12.73;5.77;;;;;;;;;;2089371;28;20040;-46
2021/10/24 02:23:53;;;;;;;9.20;5.90;;;;;;;;;;2088318;28;20044;-50
2021/10/24 02:24:54;;;;;;;15.60;6.90;;;;;;;;;;2089235;28;20130;-47
2021/10/24 02:25:55;;;;;;;14.15;5.95;;;;;;;;;;2089029;28;20095;-47
2021/10/24 02:26:56;;;;;;;11.25;6.10;;;;;;;;;;2088427;28;20091;-46
2021/10/24 02:27:57;;;;;;;10.45;5.55;;;;;;;;;;2089193;28;20511;-48
2021/10/24 02:28:58;;;;;;;11.95;5.72;;;;;;;;;;2088818;28;20052;-47
2021/10/24 02:30:00;;;;;;;10.55;6.05;;;;;;;;;;2087213;28;20406;-46
2021/10/24 02:31:01;;;;;;;14.20;6.32;;;;;;;;;;2089433;28;20045;-47
2021/10/24 02:32:02;;;;;;;17.40;6.65;;;;;;;;;;2088707;28;20068;-48
2021/10/24 02:33:04;;;;;;;14.15;6.00;;;;;;;;;;2087446;28;20045;-46
2021/10/24 02:34:04;;;;;;;12.27;6.13;;;;;;;;;;2089160;28;20161;-50
2021/10/24 02:35:06;;;;;;;12.63;6.50;;;;;;;;;;2088695;28;20179;-47
2021/10/24 02:36:07;;;;;;;9.50;5.55;;;;;;;;;;2086975;28;20045;-47
2021/10/24 02:37:08;;;;;;;10.93;5.78;;;;;;;;;;2088816;28;20459;-47
2021/10/24 02:38:10;;;;;;;11.68;6.28;;;;;;;;;;2088317;28;20127;-49
2021/10/24 02:39:11;;;;;;;13.32;7.18;;;;;;;;;;2087743;28;20064;-46
2021/10/24 02:40:12;;;;;;;13.52;6.32;;;;;;;;;;2089177;28;20059;-47
2021/10/24 02:41:13;;;;;;;11.35;6.65;;;;;;;;;;2087701;28;20059;-46
2021/10/24 02:42:14;;;;;;;12.85;6.25;;;;;;;;;;2088364;28;20520;-48
2021/10/24 02:43:15;;;;;;;9.80;5.95;;;;;;;;;;2089223;28;20065;-46
2021/10/24 02:44:16;;;;;;;16.00;6.90;;;;;;;;;;2089401;28;20049;-46
2021/10/24 02:45:17;;;;;;;10.45;4.88;;;;;;;;;;2087921;28;20053;-46
2021/10/24 02:46:18;;;;;;;16.77;6.60;;;;;;;;;;2089131;28;20124;-46
2021/10/24 02:47:20;;;;;;;10.63;6.35;;;;;;;;;;2086884;28;20718;-48
2021/10/24 02:48:21;;;;;;;10.25;6.25;;;;;;;;;;2088697;28;20094;-46
2021/10/24 02:49:22;;;;;;;12.20;6.35;;;;;;;;;;2089298;28;20132;-47
2021/10/24 02:50:23;;;;;;;11.85;6.30;;;;;;;;;;2088672;28;20049;-46
2021/10/24 02:51:24;;;;;;;9.63;5.80;;;;;;;;;;2088610;28;20045;-49
2021/10/24 02:52:25;;;;;;;13.40;6.53;;;;;;;;;;2088998;28;20072;-48
2021/10/24 02:53:27;;;;;;;11.80;6.38;;;;;;;;;;2088173;28;20045;-46
2021/10/24 02:54:28;;;;;;;10.75;5.95;;;;;;;;;;2089098;28;20049;-46
2021/10/24 02:55:29;;;;;;;9.53;6.07;;;;;;;;;;2089127;28;20127;-46
2021/10/24 02:56:30;;;;;;;12.40;5.85;;;;;;;;;;2086856;28;20051;-46
2021/10/24 02:57:31;;;;;;;10.23;6.05;;;;;;;;;;2088975;28;20067;-46
2021/10/24 02:58:32;;;;;;;14.35;6.72;;;;;;;;;;2088687;28;20045;-48
2021/10/24 02:59:33;;;;;;;11.00;6.25;;;;;;;;;;2088385;28;20055;-48
2021/10/24 03:00:34;;;;;;;11.93;6.75;;;;;;;;;;2089090;28;20127;-47
2021/10/24 03:01:35;;;;;;;13.35;6.45;;;;;;;;;;2089391;28;20045;-46
2021/10/24 03:02:36;;;;;;;13.30;7.13;;;;;;;;;;2087485;28;20411;-47
2021/10/24 03:03:38;;;;;;;10.00;6.72;;;;;;;;;;2087760;28;20045;-46
2021/10/24 03:04:39;;;;;;;12.23;6.32;;;;;;;;;;2088402;28;20087;-47
2021/10/24 03:05:40;;;;;;;9.95;5.90;;;;;;;;;;2087292;28;20064;-47
2021/10/24 03:06:41;;;;;;;10.63;6.53;;;;;;;;;;2089000;28;20041;-47
2021/10/24 03:07:43;;;;;;;12.75;6.75;;;;;;;;;;2088404;28;20368;-49
2021/10/24 03:08:44;;;;;;;10.13;5.95;;;;;;;;;;2087494;28;20474;-49
2021/10/24 03:09:45;;;;;;;12.20;6.32;;;;;;;;;;2089008;28;20479;-47
2021/10/24 03:10:46;;;;;;;11.75;6.35;;;;;;;;;;2088239;28;20052;-47
2021/10/24 03:11:47;;;;;;;14.93;7.60;;;;;;;;;;2087552;28;20078;-46
2021/10/24 03:12:48;;;;;;;13.82;6.30;;;;;;;;;;2089204;28;20051;-49
2021/10/24 03:13:50;;;;;;;11.32;6.70;;;;;;;;;;2090865;28;20048;-47
2021/10/24 03:14:51;;;;;;;14.15;6.63;;;;;;;;;;2089314;28;20653;-48
2021/10/24 03:15:53;;;;;;;13.35;6.80;;;;;;;;;;2090396;28;20090;-47
2021/10/24 03:16:54;;;;;;;12.52;7.30;;;;;;;;;;2090757;28;20055;-47
2021/10/24 03:17:55;;;;;;;10.50;6.95;;;;;;;;;;2089181;28;20052;-47
2021/10/24 03:18:56;;;;;;;12.07;6.83;;;;;;;;;;2090577;28;20401;-47
2021/10/24 03:19:57;;;;;;;15.50;6.88;;;;;;;;;;2090662;28;20277;-46
2021/10/24 03:20:58;;;;;;;14.32;6.55;;;;;;;;;;2089187;28;20128;-48
2021/10/24 03:21:59;;;;;;;13.93;6.83;;;;;;;;;;2090406;28;20409;-47
2021/10/24 03:23:00;;;;;;;10.30;6.20;;;;;;;;;;2088074;28;20585;-47
2021/10/24 03:24:04;;;;;;;14.55;6.60;;;;;;;;;;2090324;28;20057;-46
2021/10/24 03:25:05;;;;;;;14.60;6.80;;;;;;;;;;2090328;28;20044;-47
2021/10/24 03:26:06;;;;;;;12.93;6.57;;;;;;;;;;2088175;28;20045;-46
2021/10/24 03:27:07;;;;;;;12.38;6.90;;;;;;;;;;2090315;28;20553;-50
2021/10/24 03:28:08;;;;;;;12.73;6.32;;;;;;;;;;2090445;28;20045;-46
2021/10/24 03:29:10;;;;;;;10.48;6.30;;;;;;;;;;2089309;28;20129;-47
2021/10/24 03:30:11;;;;;;;12.85;6.88;;;;;;;;;;2090530;28;20073;-47
2021/10/24 03:31:11;;;;;;;14.45;6.72;;;;;;;;;;2089989;28;20559;-47
2021/10/24 03:32:13;;;;;;;12.10;7.13;;;;;;;;;;2089357;28;20090;-47
2021/10/24 03:33:13;;;;;;;11.02;6.63;;;;;;;;;;2090070;28;20045;-46
2021/10/24 03:34:15;;;;;;;10.82;6.60;;;;;;;;;;2090993;28;20064;-49
2021/10/24 03:35:16;;;;;;;12.07;6.95;;;;;;;;;;2088799;28;20084;-47
2021/10/24 03:36:17;;;;;;;10.02;6.72;;;;;;;;;;2090358;28;20056;-48
2021/10/24 03:37:18;;;;;;;9.00;6.13;;;;;;;;;;2091100;28;20151;-47
2021/10/24 03:38:19;;;;;;;13.73;7.15;;;;;;;;;;2088570;28;20593;-47
2021/10/24 03:39:20;;;;;;;15.00;7.32;;;;;;;;;;2090430;28;20049;-46
2021/10/24 03:40:22;;;;;;;13.48;6.80;;;;;;;;;;2091207;28;20139;-47
2021/10/24 03:41:22;;;;;;;12.95;6.75;;;;;;;;;;2089036;28;20085;-47
2021/10/24 03:42:24;;;;;;;12.43;6.63;;;;;;;;;;2090276;28;20057;-48
2021/10/24 03:43:27;;;;;;;11.63;7.03;;;;;;;;;;2088310;28;20132;-48
2021/10/24 03:44:28;;;;;;;11.13;6.80;;;;;;;;;;2090072;28;20095;-46
2021/10/24 03:45:28;;;;;;;12.00;7.05;;;;;;;;;;2090480;28;20171;-48
2021/10/24 03:46:31;;;;;;;16.10;6.47;;;;;;;;;;2088061;28;21118;-48
2021/10/24 03:47:32;;;;;;;11.73;6.65;;;;;;;;;;2090128;28;20049;-49
2021/10/24 03:48:33;;;;;;;14.57;6.65;;;;;;;;;;2090258;28;20074;-48
2021/10/24 03:49:35;;;;;;;12.57;6.68;;;;;;;;;;2087739;28;20166;-46
2021/10/24 03:50:36;;;;;;;12.40;6.35;;;;;;;;;;2090241;28;20080;-46
2021/10/24 03:51:37;;;;;;;11.63;6.43;;;;;;;;;;2090177;28;20048;-46
2021/10/24 03:52:38;;;;;;;15.25;7.75;;;;;;;;;;2087825;28;20525;-47
2021/10/24 03:53:39;;;;;;;11.85;6.38;;;;;;;;;;2090443;28;20051;-48
2021/10/24 03:54:40;;;;;;;17.20;7.47;;;;;;;;;;2089776;28;20127;-47
2021/10/24 03:55:41;;;;;;;12.05;6.43;;;;;;;;;;2088268;28;20163;-47
2021/10/24 03:56:42;;;;;;;11.75;6.80;;;;;;;;;;2090331;28;20124;-47
2021/10/24 03:57:43;;;;;;;13.60;6.87;;;;;;;;;;2089692;28;20531;-46
2021/10/24 03:58:44;;;;;;;12.07;6.40;;;;;;;;;;2088449;28;20317;-46
2021/10/24 03:59:45;;;;;;;14.85;7.57;;;;;;;;;;2090145;28;20446;-46
2021/10/24 04:00:47;;;;;;;11.13;7.07;;;;;;;;;;2089430;28;20048;-47
2021/10/24 04:01:47;;;;;;;10.95;6.88;;;;;;;;;;2088520;28;20044;-47
2021/10/24 04:02:50;;;;;;;14.05;7.00;;;;;;;;;;2088740;28;20037;-46
2021/10/24 04:03:51;;;;;;;11.38;6.35;;;;;;;;;;2089205;28;20053;-46
2021/10/24 04:04:52;;;;;;;13.23;6.90;;;;;;;;;;2088669;28;20057;-47
2021/10/24 04:05:53;;;;;;;13.63;7.75;;;;;;;;;;2090252;28;20072;-46
2021/10/24 04:06:54;;;;;;;13.07;6.72;;;;;;;;;;2089056;28;20053;-47
2021/10/24 04:07:55;;;;;;;11.73;6.63;;;;;;;;;;2088675;28;20036;-49
2021/10/24 04:08:56;;;;;;;13.75;6.80;;;;;;;;;;2090193;28;20415;-46
2021/10/24 04:09:58;;;;;;;13.77;6.68;;;;;;;;;;2089120;28;20413;-46
2021/10/24 04:10:59;;;;;;;14.07;6.78;;;;;;;;;;2088848;28;20131;-46
2021/10/24 04:12:00;;;;;;;11.30;6.35;;;;;;;;;;2090272;28;20048;-47
2021/10/24 04:13:01;;;;;;;11.38;7.10;;;;;;;;;;2090457;28;20139;-46
2021/10/24 04:14:02;;;;;;;12.90;6.65;;;;;;;;;;2088830;28;20073;-47
2021/10/24 04:15:04;;;;;;;10.40;6.90;;;;;;;;;;2090034;28;20044;-48
2021/10/24 04:16:05;;;;;;;14.40;6.63;;;;;;;;;;2090428;28;20136;-47
2021/10/24 04:17:06;;;;;;;13.40;7.28;;;;;;;;;;2089093;28;20110;-48
2021/10/24 04:18:07;;;;;;;11.20;7.03;;;;;;;;;;2090197;28;20127;-46
2021/10/24 04:19:08;;;;;;;11.68;6.97;;;;;;;;;;2087851;28;20283;-49
2021/10/24 04:20:10;;;;;;;14.95;7.45;;;;;;;;;;2090213;28;20052;-46
2021/10/24 04:21:11;;;;;;;;;;;;;;;;;;2090452;28;20084;-47
2021/10/24 04:22:12;;;;;;;17.73;8.10;;;;;;;;;;2087579;28;19928;-46
2021/10/24 04:23:13;;;;;;;12.85;7.72;;;;;;;;;;2089918;28;20053;-47
2021/10/24 04:24:14;;;;;;;13.18;7.57;;;;;;;;;;2089985;28;20136;-46
2021/10/24 04:25:16;;;;;;;13.30;7.65;;;;;;;;;;2087595;28;20048;-48
2021/10/24 04:26:17;;;;;;;11.77;7.43;;;;;;;;;;2090132;28;20044;-46
2021/10/24 04:27:19;;;;;;;14.35;7.30;;;;;;;;;;2089402;28;20486;-48
2021/10/24 04:28:20;;;;;;;19.55;8.38;;;;;;;;;;2087942;28;20441;-49
2021/10/24 04:29:20;;;;;;;19.55;8.57;;;;;;;;;;2089747;28;20079;-50
2021/10/24 04:30:22;;;;;;;12.98;7.53;;;;;;;;;;2090680;28;20052;-46
2021/10/24 04:31:23;;;;;;;14.82;8.15;;;;;;;;;;2088276;28;20191;-46
2021/10/24 04:32:24;;;;;;;15.32;7.60;;;;;;;;;;2089893;28;20044;-46
2021/10/24 04:33:25;;;;;;;19.95;8.93;;;;;;;;;;2089419;28;20052;-48
2021/10/24 04:34:26;;;;;;;15.67;7.90;;;;;;;;;;2088322;28;20071;-48
2021/10/24 04:35:27;;;;;;;14.98;8.50;;;;;;;;;;2090067;28;20095;-46
2021/10/24 04:36:28;;;;;;;13.07;8.20;;;;;;;;;;2090777;28;20045;-46
2021/10/24 04:37:29;;;;;;;16.10;7.45;;;;;;;;;;2087424;28;20478;-48
2021/10/24 04:38:31;;;;;;;17.85;8.75;;;;;;;;;;2090052;28;20124;-48
2021/10/24 04:39:32;;;;;;;18.90;9.50;;;;;;;;;;2090431;28;20044;-48
2021/10/24 04:40:34;;;;;;;15.73;8.60;;;;;;;;;;2088552;28;20402;-46
2021/10/24 04:41:35;;;;;;;13.25;8.15;;;;;;;;;;2090038;28;20124;-47
2021/10/24 04:42:36;;;;;;;19.00;9.50;;;;;;;;;;2090158;28;20795;-50
2021/10/24 04:43:37;;;;;;;16.45;9.05;;;;;;;;;;2088483;28;20049;-46
2021/10/24 04:44:38;;;;;;;21.52;9.63;;;;;;;;;;2090069;28;20064;-47
2021/10/24 04:45:40;;;;;;;20.67;9.35;;;;;;;;;;2090098;28;20045;-48
2021/10/24 04:46:41;;;;;;;17.25;9.20;;;;;;;;;;2088607;28;20512;-46
2021/10/24 04:47:42;;;;;;;20.52;9.45;;;;;;;;;;2089852;28;20083;-47
2021/10/24 04:48:43;;;;;;;14.32;9.02;;;;;;;;;;2087771;28;20128;-47
2021/10/24 04:49:44;;;;;;;14.82;8.77;;;;;;;;;;2089835;28;20397;-48
2021/10/24 04:50:45;;;;;;;17.02;8.55;;;;;;;;;;2089920;28;20095;-46
2021/10/24 04:51:46;;;;;;;17.40;9.55;;;;;;;;;;2087349;28;20567;-46
2021/10/24 04:52:47;;;;;;;15.95;7.63;;;;;;;;;;2089831;28;20124;-49
2021/10/24 04:53:48;;;;;;;14.90;8.18;;;;;;;;;;2089989;28;20410;-46
2021/10/24 04:54:48;;;;;;;12.13;8.00;;;;;;;;;;2087428;28;20479;-47
2021/10/24 04:55:51;;;;;;;24.00;8.45;;;;;;;;;;2089904;28;20285;-46
2021/10/24 04:56:52;;;;;;;15.02;8.25;;;;;;;;;;2089673;28;20128;-46
2021/10/24 04:57:53;;;;;;;13.90;7.70;;;;;;;;;;2087529;28;20084;-47
2021/10/24 04:58:54;;;;;;;15.85;7.78;;;;;;;;;;2089882;28;20428;-50
2021/10/24 04:59:55;;;;;;;15.63;7.85;;;;;;;;;;2089353;28;20128;-47
2021/10/24 05:00:56;;;;;;;15.27;8.85;;;;;;;;;;2088881;28;20487;-47
2021/10/24 05:01:58;;;;;;;14.52;8.38;;;;;;;;;;2089836;28;20044;-46
2021/10/24 05:02:59;;;;;;;15.77;8.50;;;;;;;;;;2087944;28;20057;-48
2021/10/24 05:04:00;;;;;;;18.05;8.40;;;;;;;;;;2087777;28;20114;-46
2021/10/24 05:05:01;;;;;;;16.73;8.15;;;;;;;;;;2089919;28;20087;-46
2021/10/24 05:06:02;;;;;;;13.82;7.38;;;;;;;;;;2088962;28;20068;-47
2021/10/24 05:07:03;;;;;;;18.73;8.57;;;;;;;;;;2087922;28;20713;-46
2021/10/24 05:08:05;;;;;;;17.20;7.95;;;;;;;;;;2089689;28;20045;-46
2021/10/24 05:09:06;;;;;;;18.33;8.15;;;;;;;;;;2090597;28;20053;-46
2021/10/24 05:10:07;;;;;;;13.30;7.10;;;;;;;;;;2087303;28;20509;-48
2021/10/24 05:11:09;;;;;;;18.92;7.93;;;;;;;;;;2089846;28;20056;-46
2021/10/24 05:12:09;;;;;;;12.32;7.75;;;;;;;;;;2088661;28;20102;-49
2021/10/24 05:13:11;;;;;;;14.53;7.53;;;;;;;;;;2088219;28;20049;-49
2021/10/24 05:14:12;;;;;;;12.38;7.70;;;;;;;;;;2089820;28;20080;-48
2021/10/24 05:15:13;;;;;;;16.52;7.07;;;;;;;;;;2088623;28;20179;-47
2021/10/24 05:16:14;;;;;;;15.02;7.40;;;;;;;;;;2088371;28;20057;-47
2021/10/24 05:17:15;;;;;;;13.52;7.82;;;;;;;;;;2089609;28;20049;-50
2021/10/24 05:18:16;;;;;;;15.20;7.60;;;;;;;;;;2090071;28;20136;-46
2021/10/24 05:19:17;;;;;;;14.38;7.70;;;;;;;;;;2087431;28;20580;-46
2021/10/24 05:20:18;;;;;;;14.38;7.28;;;;;;;;;;2089820;28;20132;-47
2021/10/24 05:21:19;;;;;;;16.60;8.10;;;;;;;;;;2087614;28;20060;-46
2021/10/24 05:22:20;;;;;;;11.40;7.13;;;;;;;;;;2089484;28;20537;-46
2021/10/24 05:23:21;;;;;;;14.75;7.22;;;;;;;;;;2089772;28;20152;-46
2021/10/24 05:24:28;;;;;;;14.02;7.50;;;;;;;;;;2088722;28;20136;-46
2021/10/24 05:25:29;;;;;;;17.38;7.95;;;;;;;;;;2082330;28;20049;-46
2021/10/24 05:26:30;;;;;;;14.02;6.70;;;;;;;;;;2089617;28;20459;-46
2021/10/24 05:27:32;;;;;;;14.10;7.18;;;;;;;;;;2087226;28;20128;-47
2021/10/24 05:28:33;;;;;;;;;;;;;;;;;;2090027;28;20129;-47
2021/10/24 05:29:34;;;;;;;12.73;7.20;;;;;;;;;;2089649;28;19920;-50
2021/10/24 05:30:35;;;;;;;10.52;6.50;;;;;;;;;;2086443;28;20132;-47
2021/10/24 05:31:36;;;;;;;11.68;6.57;;;;;;;;;;2089695;28;20049;-46
2021/10/24 05:32:37;;;;;;;12.88;6.28;;;;;;;;;;2089006;28;20051;-49
2021/10/24 05:33:38;;;;;;;19.70;7.17;;;;;;;;;;2087802;28;20052;-49
2021/10/24 05:34:40;;;;;;;15.15;6.47;;;;;;;;;;2089600;28;20051;-47
2021/10/24 05:35:41;;;;;;;14.52;6.60;;;;;;;;;;2088345;28;20136;-47
2021/10/24 05:36:43;;;;;;;16.13;6.70;;;;;;;;;;2087903;28;20044;-46
2021/10/24 05:37:44;;;;;;;11.27;6.35;;;;;;;;;;2089641;28;20045;-47
2021/10/24 05:38:45;;;;;;;11.23;6.20;;;;;;;;;;2090425;28;20068;-48
2021/10/24 05:39:47;;;;;;;12.60;6.20;;;;;;;;;;2086905;28;20062;-50
2021/10/24 05:40:48;;;;;;;13.87;6.23;;;;;;;;;;2089561;28;20114;-48
2021/10/24 05:41:50;;;;;;;11.05;6.28;;;;;;;;;;2089894;28;20360;-48
2021/10/24 05:42:50;;;;;;;11.52;6.57;;;;;;;;;;2088272;28;20068;-46
2021/10/24 05:43:53;;;;;;;11.40;6.30;;;;;;;;;;2089524;28;20504;-47
2021/10/24 05:44:54;;;;;;;13.32;6.57;;;;;;;;;;2088102;28;20045;-47
2021/10/24 05:45:55;;;;;;;13.18;6.80;;;;;;;;;;2088844;28;20486;-46
2021/10/24 05:46:56;;;;;;;11.13;7.03;;;;;;;;;;2089641;28;20049;-47
2021/10/24 05:48:01;;;;;;;15.23;6.25;;;;;;;;;;2089765;28;20048;-47
2021/10/24 05:49:03;;;;;;;15.05;6.63;;;;;;;;;;2088180;28;20060;-46
2021/10/24 05:50:05;;;;;;;9.98;6.50;;;;;;;;;;2089572;28;20179;-46
2021/10/24 05:51:08;;;;;;;12.60;6.18;;;;;;;;;;2087183;28;20124;-46
2021/10/24 05:52:10;;;;;;;11.55;5.82;;;;;;;;;;2089350;28;20135;-49
2021/10/24 05:53:11;;;;;;;9.27;5.72;;;;;;;;;;2089476;28;20405;-49
2021/10/24 05:54:12;;;;;;;10.52;5.78;;;;;;;;;;2087049;28;20080;-47
2021/10/24 05:55:13;;;;;;;11.80;6.50;;;;;;;;;;2089422;28;20136;-46
2021/10/24 05:56:14;;;;;;;12.77;6.50;;;;;;;;;;2089537;28;20059;-47
2021/10/24 05:57:15;;;;;;;11.82;6.10;;;;;;;;;;2088249;28;20573;-46
2021/10/24 05:58:16;;;;;;;13.38;6.38;;;;;;;;;;2089491;28;20468;-46
2021/10/24 05:59:17;;;;;;;14.40;6.13;;;;;;;;;;2089004;28;20135;-49
2021/10/24 06:00:18;;;;;;;8.95;5.85;;;;;;;;;;2087568;28;20045;-47
2021/10/24 06:01:19;;;;;;;11.53;6.17;;;;;;;;;;2089523;28;20132;-47
2021/10/24 06:02:20;;;;;;;11.10;5.50;;;;;;;;;;2089961;28;20281;-48
2021/10/24 06:03:21;;;;;;;11.02;6.28;;;;;;;;;;2086086;28;20055;-47